Terminal Aerodrome Forecast
Issued by NWS Charleston, WV

Current Version | Previous Version | Graphics & Text | Print | Product List | Glossary On
Versions: 1 2 3 4 5 6 7 8 9 10 11 12 13 14 15 16 17 18 19 20 21 22 23
000
FTUS41 KRLX 231610 AAA
TAFBKW
TAF AMD
KBKW 231610Z 2316/2412 35005KT P6SM BKN035
     FM231800 35007KT P6SM BKN040
     FM232000 35007KT P6SM VCTS BKN040CB
     FM232200 34005KT P6SM SCT080=

USA.gov is the U.S. government's official web portal to all federal, state and local government web resources and services.